createdAt,value
2022-08-19T00:00:40.884Z,18.30
2022-08-19T00:01:44.903Z,16.33
2022-08-19T00:02:55.435Z,16.67
2022-08-19T00:04:00.464Z,16.53
2022-08-19T00:05:02.940Z,16.07
2022-08-19T00:06:04.805Z,16.17
2022-08-19T00:07:07.362Z,16.50
2022-08-19T00:08:08.970Z,14.07
2022-08-19T00:09:13.350Z,15.43
2022-08-19T00:10:16.637Z,16.30
2022-08-19T00:11:26.091Z,15.47
2022-08-19T00:12:28.317Z,16.50
2022-08-19T00:13:30.043Z,17.70
2022-08-19T00:14:32.364Z,16.57
2022-08-19T00:15:34.477Z,19.30
2022-08-19T00:16:36.990Z,17.83
2022-08-19T00:17:42.065Z,18.20
2022-08-19T00:18:43.675Z,16.93
2022-08-19T00:19:45.225Z,17.00
2022-08-19T00:20:46.937Z,17.13
2022-08-19T00:21:48.624Z,17.33
2022-08-19T00:22:50.425Z,16.23
2022-08-19T00:23:52.054Z,16.87
2022-08-19T00:24:53.721Z,17.00
2022-08-19T00:25:56.328Z,16.33
2022-08-19T00:27:25.101Z,16.87
2022-08-19T00:28:21.561Z,16.70
2022-08-19T00:29:24.781Z,17.50
2022-08-19T00:30:28.535Z,17.33
2022-08-19T00:31:30.165Z,18.17
2022-08-19T00:32:31.792Z,17.50
2022-08-19T00:33:35.094Z,17.93
2022-08-19T00:34:36.678Z,15.93
2022-08-19T00:35:39.413Z,17.80
2022-08-19T00:36:42.627Z,17.20
2022-08-19T00:37:44.586Z,18.80
2022-08-19T00:38:47.389Z,16.97
2022-08-19T00:39:49.416Z,16.83
2022-08-19T00:40:51.255Z,16.33
2022-08-19T00:41:52.847Z,16.80
2022-08-19T00:42:54.785Z,17.33
2022-08-19T00:44:02.211Z,16.87
2022-08-19T00:45:11.601Z,16.47
2022-08-19T00:46:13.211Z,14.93
2022-08-19T00:47:15.221Z,15.30
2022-08-19T00:48:19.092Z,15.90
2022-08-19T00:49:53.313Z,16.07
2022-08-19T00:50:56.412Z,17.70
2022-08-19T00:52:03.899Z,16.80
2022-08-19T00:53:05.471Z,17.57
2022-08-19T00:54:07.044Z,18.60
2022-08-19T00:55:12.637Z,17.30
2022-08-19T00:56:14.288Z,16.60
2022-08-19T00:57:19.690Z,17.90
2022-08-19T00:58:25.426Z,17.17
2022-08-19T00:59:53.574Z,18.47
2022-08-19T01:00:50.477Z,17.40
2022-08-19T01:01:53.280Z,17.67
2022-08-19T01:02:55.493Z,16.73
2022-08-19T01:03:58.726Z,17.67
2022-08-19T01:05:03.954Z,16.77
2022-08-19T01:06:06.636Z,17.33
2022-08-19T01:07:09.155Z,16.90
2022-08-19T01:08:19.306Z,17.67
2022-08-19T01:09:20.844Z,18.30
2022-08-19T01:10:29.980Z,16.50
2022-08-19T01:11:37.585Z,17.40
2022-08-19T01:12:40.317Z,18.27
2022-08-19T01:13:49.042Z,16.90
2022-08-19T01:14:52.302Z,16.13
2022-08-19T01:16:05.026Z,16.67
2022-08-19T01:17:09.312Z,17.90
2022-08-19T01:18:14.659Z,18.10
2022-08-19T01:19:44.124Z,17.30
2022-08-19T01:20:47.028Z,17.10
2022-08-19T01:22:14.479Z,15.60
2022-08-19T01:23:18.438Z,18.50
2022-08-19T01:24:19.991Z,18.40
2022-08-19T01:25:27.726Z,17.67
2022-08-19T01:26:31.363Z,17.90
2022-08-19T01:27:45.939Z,17.20
2022-08-19T01:28:49.658Z,17.27
2022-08-19T01:29:53.407Z,18.40
2022-08-19T01:30:55.776Z,17.43
2022-08-19T01:31:58.640Z,16.73
2022-08-19T01:33:01.444Z,17.60
2022-08-19T01:34:04.175Z,17.63
2022-08-19T01:35:06.319Z,18.20
2022-08-19T01:36:11.731Z,18.07
2022-08-19T01:37:14.643Z,18.00
2022-08-19T01:38:28.138Z,15.20
2022-08-19T01:39:29.803Z,16.53
2022-08-19T01:40:34.097Z,17.83
2022-08-19T01:41:36.133Z,17.90
2022-08-19T01:42:37.992Z,17.63
2022-08-19T01:44:03.165Z,18.10
2022-08-19T01:45:01.370Z,17.53
2022-08-19T01:46:04.432Z,17.47
2022-08-19T01:47:06.242Z,17.30
2022-08-19T01:48:08.422Z,17.83
2022-08-19T01:49:11.139Z,16.47
2022-08-19T01:50:14.234Z,19.20
2022-08-19T01:51:16.343Z,16.10
2022-08-19T01:52:17.866Z,17.00
2022-08-19T01:53:19.486Z,17.30
2022-08-19T01:54:27.790Z,16.50
2022-08-19T01:55:29.761Z,17.17
2022-08-19T01:56:31.398Z,17.43
2022-08-19T01:57:33.330Z,16.50
2022-08-19T01:58:47.043Z,17.20
2022-08-19T01:59:48.689Z,15.90
2022-08-19T02:00:50.234Z,18.30
2022-08-19T02:01:51.895Z,18.30
2022-08-19T02:02:53.611Z,17.63
2022-08-19T02:03:56.931Z,17.67
2022-08-19T02:05:00.172Z,16.70
2022-08-19T02:06:03.932Z,17.20
2022-08-19T02:07:08.865Z,17.50
2022-08-19T02:08:11.605Z,17.30
2022-08-19T02:09:13.240Z,17.33
2022-08-19T02:10:21.964Z,16.40
2022-08-19T02:11:28.613Z,16.20
2022-08-19T02:12:30.427Z,17.97
2022-08-19T02:13:33.630Z,17.40
2022-08-19T02:14:36.707Z,18.80
2022-08-19T02:15:38.938Z,17.20
2022-08-19T02:16:41.110Z,17.97
2022-08-19T02:17:43.267Z,17.60
2022-08-19T02:18:45.289Z,18.23
2022-08-19T02:19:46.917Z,18.80
2022-08-19T02:20:48.778Z,17.03
2022-08-19T02:21:50.657Z,17.23
2022-08-19T02:22:52.482Z,17.50
2022-08-19T02:23:54.810Z,16.57
2022-08-19T02:24:56.585Z,16.47
2022-08-19T02:25:58.482Z,17.57
2022-08-19T02:27:00.073Z,16.73
2022-08-19T02:28:01.831Z,19.57
2022-08-19T02:29:03.530Z,18.30
2022-08-19T02:30:08.821Z,20.00
2022-08-19T02:31:19.835Z,19.10
2022-08-19T02:32:21.402Z,18.57
2022-08-19T02:33:22.922Z,19.17
2022-08-19T02:34:25.862Z,18.30
2022-08-19T02:35:27.818Z,17.83
2022-08-19T02:36:29.545Z,17.17
2022-08-19T02:37:50.781Z,17.73
2022-08-19T02:38:54.718Z,17.47
2022-08-19T02:39:57.175Z,18.20
2022-08-19T02:41:02.622Z,18.30
2022-08-19T02:42:04.427Z,18.60
2022-08-19T02:43:09.425Z,17.73
2022-08-19T02:44:30.455Z,18.80
2022-08-19T02:45:34.301Z,18.50
2022-08-19T02:46:37.446Z,19.30
2022-08-19T02:47:39.003Z,19.03
2022-08-19T02:48:44.498Z,18.47
2022-08-19T02:49:46.906Z,18.30
2022-08-19T02:50:53.807Z,18.20
2022-08-19T02:51:55.804Z,18.20
2022-08-19T02:52:57.455Z,18.97
2022-08-19T02:54:00.762Z,19.13
2022-08-19T02:55:02.482Z,20.40
2022-08-19T02:56:08.420Z,17.53
2022-08-19T02:57:10.036Z,19.57
2022-08-19T02:58:11.679Z,18.97
2022-08-19T02:59:13.425Z,18.57
2022-08-19T03:00:15.935Z,19.03
2022-08-19T03:01:22.551Z,19.47
2022-08-19T03:02:24.305Z,17.87
2022-08-19T03:03:26.573Z,19.00
2022-08-19T03:04:28.179Z,20.00
2022-08-19T03:05:55.975Z,19.93
2022-08-19T03:06:51.698Z,19.23
2022-08-19T03:07:53.266Z,19.70
2022-08-19T03:08:55.054Z,19.30
2022-08-19T03:09:56.636Z,20.03
2022-08-19T03:10:58.193Z,19.67
2022-08-19T03:11:59.897Z,18.53
2022-08-19T03:13:01.562Z,18.27
2022-08-19T03:14:08.429Z,18.43
2022-08-19T03:15:10.202Z,17.77
2022-08-19T03:16:13.841Z,16.80
2022-08-19T03:17:15.437Z,18.97
2022-08-19T03:18:18.001Z,19.13
2022-08-19T03:19:22.330Z,18.83
2022-08-19T03:20:23.884Z,18.90
2022-08-19T03:21:27.523Z,18.50
2022-08-19T03:22:31.705Z,19.20
2022-08-19T03:23:33.743Z,19.87
2022-08-19T03:24:35.643Z,18.90
2022-08-19T03:25:41.742Z,19.50
2022-08-19T03:26:46.810Z,20.73
2022-08-19T03:27:49.967Z,19.33
2022-08-19T03:28:58.368Z,18.73
2022-08-19T03:30:00.628Z,21.00
2022-08-19T03:31:41.687Z,20.13
2022-08-19T03:32:32.947Z,20.10
2022-08-19T03:33:35.866Z,20.83
2022-08-19T03:34:38.491Z,20.60
2022-08-19T03:35:40.039Z,21.40
2022-08-19T03:36:41.969Z,22.00
2022-08-19T03:37:43.483Z,20.20
2022-08-19T03:38:48.931Z,19.77
2022-08-19T03:39:57.871Z,19.63
2022-08-19T03:41:04.170Z,21.40
2022-08-19T03:42:32.588Z,21.73
2022-08-19T03:43:27.965Z,20.63
2022-08-19T03:44:30.967Z,18.47
2022-08-19T03:45:32.740Z,18.60
2022-08-19T03:46:34.445Z,19.97
2022-08-19T03:47:36.019Z,20.63
2022-08-19T03:48:39.749Z,19.87
2022-08-19T03:49:41.592Z,20.50
2022-08-19T03:50:44.355Z,20.73
2022-08-19T03:51:47.764Z,21.03
2022-08-19T03:52:51.592Z,20.47
2022-08-19T03:53:55.755Z,20.63
2022-08-19T03:54:57.603Z,20.67
2022-08-19T03:56:01.248Z,21.60
2022-08-19T03:57:05.018Z,21.07
2022-08-19T03:58:07.556Z,19.90
2022-08-19T03:59:21.270Z,21.97
2022-08-19T04:00:23.298Z,19.17
2022-08-19T04:01:30.845Z,20.50
2022-08-19T04:02:37.252Z,21.70
2022-08-19T04:03:39.921Z,20.60
2022-08-19T04:04:44.679Z,19.87
2022-08-19T04:05:47.665Z,22.80
2022-08-19T04:06:49.494Z,20.90
2022-08-19T04:07:51.114Z,21.03
2022-08-19T04:08:54.915Z,21.30
2022-08-19T04:09:56.527Z,21.80
2022-08-19T04:10:58.174Z,20.47
2022-08-19T04:11:59.825Z,20.80
2022-08-19T04:13:01.560Z,21.13
2022-08-19T04:14:04.468Z,21.27
2022-08-19T04:15:07.113Z,21.37
2022-08-19T04:16:10.859Z,20.90
2022-08-19T04:17:12.716Z,20.67
2022-08-19T04:18:14.470Z,21.60
2022-08-19T04:19:17.804Z,21.50
2022-08-19T04:20:19.480Z,22.33
2022-08-19T04:21:24.244Z,20.10
2022-08-19T04:22:25.863Z,21.60
2022-08-19T04:23:32.037Z,21.53
2022-08-19T04:24:35.876Z,21.13
2022-08-19T04:25:43.079Z,21.60
2022-08-19T04:26:45.399Z,22.23
2022-08-19T04:27:47.384Z,19.93
2022-08-19T04:28:50.032Z,21.17
2022-08-19T04:29:51.675Z,20.20
2022-08-19T04:30:54.757Z,21.40
2022-08-19T04:31:57.892Z,21.13
2022-08-19T04:32:59.691Z,21.13
2022-08-19T04:34:05.989Z,20.30
2022-08-19T04:35:18.518Z,22.60
2022-08-19T04:36:27.226Z,21.67
2022-08-19T04:37:33.690Z,21.03
2022-08-19T04:38:37.249Z,22.60
2022-08-19T04:39:58.804Z,22.93
2022-08-19T04:41:23.237Z,22.07
2022-08-19T04:42:40.285Z,21.33
2022-08-19T04:43:41.965Z,22.60
2022-08-19T04:44:46.407Z,21.77
2022-08-19T04:45:48.295Z,21.50
2022-08-19T04:46:51.947Z,20.80
2022-08-19T04:47:58.891Z,21.70
2022-08-19T04:49:23.796Z,20.97
2022-08-19T04:50:28.467Z,23.33
2022-08-19T04:51:32.139Z,21.50
2022-08-19T04:52:33.981Z,19.77
2022-08-19T04:53:38.219Z,19.17
2022-08-19T04:54:40.102Z,21.53
2022-08-19T04:55:42.754Z,21.20
2022-08-19T04:56:44.805Z,21.47
2022-08-19T04:57:53.766Z,19.83
2022-08-19T04:58:57.122Z,20.53
2022-08-19T04:59:58.852Z,20.37
2022-08-19T05:01:03.244Z,21.70
2022-08-19T05:02:05.287Z,19.93
2022-08-19T05:03:07.759Z,21.43
2022-08-19T05:04:10.091Z,20.03
2022-08-19T05:05:11.979Z,20.60
2022-08-19T05:06:15.768Z,20.33
2022-08-19T05:07:17.690Z,21.13
2022-08-19T05:08:31.280Z,21.63
2022-08-19T05:09:57.896Z,19.27
2022-08-19T05:10:54.847Z,20.70
2022-08-19T05:11:56.377Z,19.77
2022-08-19T05:12:58.717Z,19.80
2022-08-19T05:14:00.707Z,19.90
2022-08-19T05:15:06.665Z,20.77
2022-08-19T05:16:08.305Z,21.47
2022-08-19T05:17:27.040Z,21.00
2022-08-19T05:18:47.972Z,21.77
2022-08-19T05:20:08.040Z,21.47
2022-08-19T05:21:30.583Z,20.50
2022-08-19T05:22:38.247Z,19.13
2022-08-19T05:23:39.906Z,19.77
2022-08-19T05:25:02.476Z,18.97
2022-08-19T05:26:03.602Z,19.60
2022-08-19T05:27:06.595Z,20.03
2022-08-19T05:28:08.215Z,22.27
2022-08-19T05:29:11.113Z,21.00
2022-08-19T05:30:12.941Z,20.97
2022-08-19T05:31:14.830Z,19.00
2022-08-19T05:32:16.842Z,19.40
2022-08-19T05:33:19.477Z,20.30
2022-08-19T05:34:24.094Z,20.93
2022-08-19T05:35:25.689Z,20.20
2022-08-19T05:36:29.028Z,19.67
2022-08-19T05:37:30.943Z,20.00
2022-08-19T05:38:36.701Z,20.10
2022-08-19T05:39:38.937Z,20.43
2022-08-19T05:40:40.927Z,20.43
2022-08-19T05:41:44.545Z,20.47
2022-08-19T05:42:46.557Z,21.00
2022-08-19T05:44:03.720Z,20.47
2022-08-19T05:45:05.755Z,22.40
2022-08-19T05:46:08.170Z,19.80
2022-08-19T05:47:09.851Z,20.10
2022-08-19T05:48:12.334Z,21.10
2022-08-19T05:49:16.136Z,20.30
2022-08-19T05:50:18.525Z,20.23
2022-08-19T05:51:20.158Z,21.90
2022-08-19T05:52:25.368Z,21.07
2022-08-19T05:53:27.556Z,18.83
2022-08-19T05:54:29.180Z,19.63
2022-08-19T05:55:31.053Z,20.57
2022-08-19T05:56:33.086Z,19.20
2022-08-19T05:57:34.665Z,21.87
2022-08-19T05:58:37.583Z,20.90
2022-08-19T05:59:39.309Z,20.33
2022-08-19T06:00:43.537Z,19.63
2022-08-19T06:01:47.176Z,21.10
2022-08-19T06:02:48.834Z,22.73
2022-08-19T06:03:50.500Z,22.13
2022-08-19T06:04:52.059Z,22.63
2022-08-19T06:05:54.092Z,22.77
2022-08-19T06:06:57.213Z,21.77
2022-08-19T06:08:02.038Z,20.90
2022-08-19T06:09:08.488Z,20.50
2022-08-19T06:10:11.940Z,21.23
2022-08-19T06:11:22.626Z,22.27
2022-08-19T06:12:29.658Z,21.37
2022-08-19T06:13:33.397Z,21.60
2022-08-19T06:14:41.787Z,23.10
2022-08-19T06:15:45.352Z,22.63
2022-08-19T06:16:47.011Z,23.50
2022-08-19T06:17:48.811Z,23.30
2022-08-19T06:18:55.010Z,22.20
2022-08-19T06:19:57.378Z,21.63
2022-08-19T06:20:59.048Z,23.37
2022-08-19T06:22:01.234Z,22.10
2022-08-19T06:23:03.935Z,23.33
2022-08-19T06:24:07.492Z,21.43
2022-08-19T06:25:12.657Z,22.17
2022-08-19T06:26:16.308Z,21.30
2022-08-19T06:27:17.955Z,20.30
2022-08-19T06:28:19.698Z,20.53
2022-08-19T06:29:24.784Z,21.60
2022-08-19T06:30:26.650Z,22.13
2022-08-19T06:31:30.161Z,21.27
2022-08-19T06:32:31.847Z,21.50
2022-08-19T06:33:33.375Z,21.87
2022-08-19T06:34:35.878Z,22.77
2022-08-19T06:35:41.970Z,21.10
2022-08-19T06:36:46.373Z,22.23
2022-08-19T06:37:48.097Z,18.73
2022-08-19T06:38:49.635Z,22.67
2022-08-19T06:39:51.574Z,21.50
2022-08-19T06:41:07.979Z,22.70
2022-08-19T06:42:17.081Z,22.10
2022-08-19T06:43:19.508Z,21.40
2022-08-19T06:44:25.834Z,20.87
2022-08-19T06:45:34.448Z,20.70
2022-08-19T06:46:38.926Z,19.20
2022-08-19T06:47:44.831Z,21.00
2022-08-19T06:48:47.715Z,23.27
2022-08-19T06:49:49.265Z,22.13
2022-08-19T06:50:52.463Z,21.80
2022-08-19T06:51:54.318Z,22.20
2022-08-19T06:52:56.180Z,23.07
2022-08-19T06:53:58.084Z,24.37
2022-08-19T06:55:00.191Z,22.47
2022-08-19T06:56:03.173Z,24.20
2022-08-19T06:57:05.031Z,21.40
2022-08-19T06:58:06.801Z,19.70
2022-08-19T06:59:11.985Z,21.70
2022-08-19T07:00:17.109Z,22.97
2022-08-19T07:01:19.804Z,20.40
2022-08-19T07:02:21.962Z,21.20
2022-08-19T07:03:23.718Z,21.00
2022-08-19T07:04:29.039Z,23.30
2022-08-19T07:05:30.743Z,20.67
2022-08-19T07:06:43.904Z,22.30
2022-08-19T07:07:47.592Z,22.23
2022-08-19T07:08:49.507Z,21.87
2022-08-19T07:09:59.075Z,23.47
2022-08-19T07:11:01.877Z,23.53
2022-08-19T07:12:13.124Z,22.83
2022-08-19T07:13:15.023Z,21.10
2022-08-19T07:14:20.029Z,20.97
2022-08-19T07:15:22.201Z,23.60
2022-08-19T07:16:27.983Z,23.30
2022-08-19T07:17:31.133Z,22.50
2022-08-19T07:18:33.012Z,23.30
2022-08-19T07:19:35.509Z,24.10
2022-08-19T07:20:38.094Z,21.57
2022-08-19T07:21:41.097Z,21.37
2022-08-19T07:22:42.770Z,21.67
2022-08-19T07:23:44.976Z,19.40
2022-08-19T07:24:51.121Z,20.97
2022-08-19T07:25:53.469Z,20.27
2022-08-19T07:27:01.255Z,18.13
2022-08-19T07:28:03.051Z,19.77
2022-08-19T07:29:04.670Z,19.30
2022-08-19T07:30:07.397Z,21.37
2022-08-19T07:31:18.445Z,20.00
2022-08-19T07:32:22.064Z,19.50
2022-08-19T07:33:23.677Z,19.80
2022-08-19T07:34:26.713Z,20.13
2022-08-19T07:35:29.407Z,21.20
2022-08-19T07:36:33.113Z,19.90
2022-08-19T07:37:37.954Z,18.27
2022-08-19T07:38:41.863Z,19.23
2022-08-19T07:39:43.510Z,20.50
2022-08-19T07:40:47.071Z,20.13
2022-08-19T07:41:49.224Z,20.30
2022-08-19T07:42:50.859Z,19.67
2022-08-19T07:43:54.104Z,19.37
2022-08-19T07:44:55.715Z,18.90
2022-08-19T07:45:57.730Z,18.43
2022-08-19T07:47:01.008Z,18.50
2022-08-19T07:48:03.022Z,19.67
2022-08-19T07:49:07.730Z,17.37
2022-08-19T07:50:12.367Z,17.73
2022-08-19T07:51:36.084Z,16.60
2022-08-19T07:52:40.508Z,18.13
2022-08-19T07:53:44.215Z,16.80
2022-08-19T07:54:45.788Z,16.60
2022-08-19T07:55:47.890Z,17.37
2022-08-19T07:56:52.494Z,17.27
2022-08-19T07:57:54.598Z,18.23
2022-08-19T08:00:05.491Z,15.90
2022-08-19T08:01:10.812Z,18.07
2022-08-19T08:02:12.405Z,16.97
2022-08-19T08:03:16.652Z,17.33
2022-08-19T08:04:38.559Z,18.50
2022-08-19T08:05:59.377Z,16.93
2022-08-19T08:07:19.378Z,18.13
2022-08-19T08:08:36.479Z,17.83
2022-08-19T08:09:42.459Z,17.73
2022-08-19T08:10:44.300Z,17.63
2022-08-19T08:12:02.065Z,17.33
2022-08-19T08:13:09.335Z,17.87
2022-08-19T08:14:29.518Z,16.50
2022-08-19T08:15:40.031Z,17.57
2022-08-19T08:16:47.014Z,15.00
2022-08-19T08:17:51.640Z,17.33
2022-08-19T08:18:53.462Z,14.47
2022-08-19T08:19:55.787Z,15.00
2022-08-19T08:20:58.336Z,16.80
2022-08-19T08:22:02.094Z,15.57
2022-08-19T08:23:22.680Z,15.10
2022-08-19T08:24:28.683Z,15.60
2022-08-19T08:25:32.530Z,15.43
2022-08-19T08:26:36.058Z,14.30
2022-08-19T08:27:42.124Z,16.50
2022-08-19T08:28:47.867Z,15.60
2022-08-19T08:29:50.019Z,18.40
2022-08-19T08:30:52.943Z,17.43
2022-08-19T08:31:59.679Z,16.00
2022-08-19T08:33:02.587Z,16.60
2022-08-19T08:34:04.613Z,14.57
2022-08-19T08:35:08.587Z,16.60
2022-08-19T08:36:10.276Z,16.07
2022-08-19T08:37:11.851Z,17.30
2022-08-19T08:38:14.416Z,16.60
2022-08-19T08:39:19.541Z,15.60
2022-08-19T08:40:28.808Z,16.60
2022-08-19T08:41:50.148Z,16.30
2022-08-19T08:43:07.315Z,15.10
2022-08-19T08:44:24.351Z,16.00
2022-08-19T08:45:29.972Z,15.67
2022-08-19T08:46:54.659Z,14.90
2022-08-19T08:48:02.790Z,14.70
2022-08-19T08:49:17.928Z,14.33
2022-08-19T08:50:26.560Z,13.00
2022-08-19T08:51:35.190Z,14.97
2022-08-19T08:52:43.681Z,14.60
2022-08-19T08:53:48.208Z,15.40
2022-08-19T08:54:55.516Z,14.73
2022-08-19T08:55:57.453Z,14.50
2022-08-19T08:56:59.632Z,14.20
2022-08-19T08:58:15.005Z,13.60
2022-08-19T08:59:33.262Z,12.53
2022-08-19T09:00:39.135Z,13.73
2022-08-19T09:01:40.878Z,13.43
2022-08-19T09:02:43.542Z,13.50
2022-08-19T09:03:46.384Z,14.00
2022-08-19T09:04:48.117Z,14.47
2022-08-19T09:06:04.363Z,12.90
2022-08-19T09:07:34.827Z,13.00
2022-08-19T09:08:49.288Z,12.23
2022-08-19T09:09:58.107Z,13.90
2022-08-19T09:11:05.650Z,14.87
2022-08-19T09:12:36.704Z,15.00
2022-08-19T09:13:59.147Z,15.70
2022-08-19T09:15:13.007Z,15.00
2022-08-19T09:16:21.825Z,14.00
2022-08-19T09:17:32.277Z,14.53
2022-08-19T09:18:42.949Z,16.27
2022-08-19T09:19:50.180Z,13.57
2022-08-19T09:20:51.855Z,13.90
2022-08-19T09:21:53.806Z,14.70
2022-08-19T09:22:59.492Z,14.20
2022-08-19T09:24:05.526Z,14.07
2022-08-19T09:25:09.975Z,15.80
2022-08-19T09:26:17.415Z,15.17
2022-08-19T09:27:22.188Z,13.43
2022-08-19T09:28:48.940Z,13.90
2022-08-19T09:29:51.531Z,14.83
2022-08-19T09:30:56.512Z,13.00
2022-08-19T09:31:58.124Z,12.03
2022-08-19T09:33:00.117Z,13.43
2022-08-19T09:34:04.667Z,13.63
2022-08-19T09:35:08.760Z,12.57
2022-08-19T09:36:14.225Z,11.33
2022-08-19T09:37:26.014Z,13.37
2022-08-19T09:38:27.581Z,12.30
2022-08-19T09:39:35.866Z,12.30
2022-08-19T09:40:38.584Z,11.70
2022-08-19T09:41:40.282Z,12.67
2022-08-19T09:42:49.950Z,14.60
2022-08-19T09:43:54.747Z,11.93
2022-08-19T09:44:56.328Z,12.60
2022-08-19T09:45:58.196Z,10.50
2022-08-19T09:47:01.185Z,9.80
2022-08-19T09:48:03.820Z,9.70
2022-08-19T09:49:07.349Z,10.10
2022-08-19T09:50:12.314Z,9.43
2022-08-19T09:51:23.555Z,8.90
2022-08-19T09:52:25.258Z,9.50
2022-08-19T09:53:34.635Z,8.50
2022-08-19T09:54:39.850Z,8.17
2022-08-19T09:55:45.951Z,8.63
2022-08-19T09:56:47.865Z,8.83
2022-08-19T09:57:49.427Z,9.27
2022-08-19T09:58:51.045Z,8.40
2022-08-19T09:59:52.630Z,9.90
2022-08-19T10:00:56.223Z,9.40
2022-08-19T10:02:04.036Z,9.40
2022-08-19T10:03:12.657Z,10.80
2022-08-19T10:04:20.434Z,9.30
2022-08-19T10:05:42.913Z,11.17
2022-08-19T10:06:46.403Z,11.20
2022-08-19T10:07:48.929Z,10.53
2022-08-19T10:08:52.582Z,10.57
2022-08-19T10:09:54.242Z,9.90
2022-08-19T10:10:56.914Z,11.20
2022-08-19T10:12:02.594Z,10.63
2022-08-19T10:13:04.896Z,9.63
2022-08-19T10:14:07.237Z,11.10
2022-08-19T10:15:09.403Z,8.80
2022-08-19T10:16:14.504Z,8.80
2022-08-19T10:17:20.785Z,8.70
2022-08-19T10:18:26.299Z,8.03
2022-08-19T10:19:31.027Z,9.23
2022-08-19T10:20:32.865Z,10.43
2022-08-19T10:21:35.357Z,12.70
2022-08-19T10:22:38.360Z,14.07
2022-08-19T10:23:46.041Z,12.40
2022-08-19T10:24:48.135Z,12.80
2022-08-19T10:25:50.754Z,12.00
2022-08-19T10:26:58.771Z,13.30
2022-08-19T10:28:01.691Z,13.33
2022-08-19T10:29:05.753Z,13.40
2022-08-19T10:30:10.088Z,12.70
2022-08-19T10:31:16.048Z,12.47
2022-08-19T10:32:28.432Z,12.63
2022-08-19T10:33:53.176Z,11.33
2022-08-19T10:34:57.088Z,12.60
2022-08-19T10:36:05.534Z,12.37
2022-08-19T10:37:10.745Z,12.47
2022-08-19T10:38:12.506Z,10.77
2022-08-19T10:39:14.076Z,12.37
2022-08-19T10:40:15.825Z,11.37
2022-08-19T10:41:23.294Z,10.10
2022-08-19T10:42:25.079Z,10.80
2022-08-19T10:43:26.773Z,12.13
2022-08-19T10:44:32.328Z,12.23
2022-08-19T10:45:34.412Z,11.17
2022-08-19T10:46:48.975Z,12.00
2022-08-19T10:47:51.964Z,9.73
2022-08-19T10:48:55.008Z,10.70
2022-08-19T10:50:15.425Z,10.83
2022-08-19T10:51:36.513Z,8.90
2022-08-19T10:52:50.816Z,8.77
2022-08-19T10:53:52.775Z,8.70
2022-08-19T10:55:13.029Z,9.33
2022-08-19T10:56:33.572Z,7.30
2022-08-19T10:58:58.444Z,7.40
2022-08-19T10:59:59.975Z,8.10
2022-08-19T11:01:04.184Z,6.50
2022-08-19T11:02:10.532Z,6.83
2022-08-19T11:03:12.241Z,7.10
2022-08-19T11:04:14.744Z,7.37
2022-08-19T11:05:18.030Z,6.80
2022-08-19T11:06:21.488Z,6.73
2022-08-19T11:07:26.104Z,5.37
2022-08-19T11:08:27.831Z,6.60
2022-08-19T11:09:34.078Z,6.20
2022-08-19T11:10:37.396Z,6.23
2022-08-19T11:11:41.779Z,6.30
2022-08-19T11:12:43.369Z,6.47
2022-08-19T11:13:46.838Z,5.87
2022-08-19T11:14:50.757Z,5.57
2022-08-19T11:16:07.674Z,5.03
2022-08-19T11:17:09.675Z,5.30
2022-08-19T11:18:13.209Z,5.27
2022-08-19T11:19:17.985Z,6.28
2022-08-19T11:20:19.656Z,5.47
2022-08-19T11:21:32.554Z,6.20
2022-08-19T11:22:40.597Z,5.10
2022-08-19T11:23:44.429Z,5.73
2022-08-19T11:24:46.084Z,5.67
2022-08-19T11:25:47.659Z,5.90
2022-08-19T11:26:51.239Z,5.90
2022-08-19T11:27:53.224Z,5.80
2022-08-19T11:28:55.976Z,5.67
2022-08-19T11:29:57.569Z,6.60
2022-08-19T11:30:59.386Z,7.63
2022-08-19T11:32:04.276Z,7.00
2022-08-19T11:33:05.884Z,6.77
2022-08-19T11:34:13.204Z,6.47
2022-08-19T11:35:15.184Z,6.53
2022-08-19T11:36:17.370Z,6.13
2022-08-19T11:37:19.069Z,7.03
2022-08-19T11:38:20.737Z,6.83
2022-08-19T11:39:23.440Z,7.30
2022-08-19T11:40:25.055Z,6.63
2022-08-19T11:41:27.204Z,8.80
2022-08-19T11:42:47.555Z,8.50
2022-08-19T11:43:53.905Z,8.00
2022-08-19T11:44:55.788Z,8.00
2022-08-19T11:45:58.887Z,9.13
2022-08-19T11:47:08.893Z,8.20
2022-08-19T11:48:11.150Z,8.73
2022-08-19T11:49:14.527Z,7.70
2022-08-19T11:50:17.479Z,8.10
2022-08-19T11:51:22.642Z,7.73
2022-08-19T11:52:24.258Z,8.77
2022-08-19T11:53:26.197Z,7.80
2022-08-19T11:54:27.812Z,7.50
2022-08-19T11:55:29.433Z,8.57
2022-08-19T11:56:31.129Z,7.23
2022-08-19T11:57:33.480Z,8.47
2022-08-19T11:58:36.088Z,8.00
2022-08-19T11:59:37.771Z,8.20
2022-08-19T12:00:39.950Z,8.30
2022-08-19T12:01:44.961Z,7.10
2022-08-19T12:02:46.999Z,8.83
2022-08-19T12:03:50.760Z,7.90
2022-08-19T12:04:52.511Z,6.93
2022-08-19T12:05:54.441Z,8.70
2022-08-19T12:06:56.285Z,8.17
2022-08-19T12:07:57.884Z,7.93
2022-08-19T12:09:02.668Z,8.27
2022-08-19T12:10:04.674Z,8.00
2022-08-19T12:11:08.882Z,9.27
2022-08-19T12:12:10.931Z,7.93
2022-08-19T12:13:19.247Z,9.87
2022-08-19T12:14:20.804Z,9.20
2022-08-19T12:15:22.734Z,10.60
2022-08-19T12:16:27.771Z,10.03
2022-08-19T12:17:31.762Z,10.07
2022-08-19T12:18:34.153Z,10.00
2022-08-19T12:19:37.696Z,10.50
2022-08-19T12:20:41.089Z,10.50
2022-08-19T12:21:42.767Z,11.80
2022-08-19T12:22:44.463Z,10.10
2022-08-19T12:23:46.383Z,10.27
2022-08-19T12:24:51.608Z,9.67
2022-08-19T12:25:53.262Z,10.40
2022-08-19T12:26:56.319Z,10.40
2022-08-19T12:28:03.811Z,9.60
2022-08-19T12:29:06.760Z,10.60
2022-08-19T12:30:11.198Z,10.20
2022-08-19T12:31:13.091Z,9.23
2022-08-19T12:32:14.749Z,9.80
2022-08-19T12:33:16.917Z,9.17
2022-08-19T12:34:20.701Z,10.27
2022-08-19T12:35:22.766Z,9.17
2022-08-19T12:36:25.729Z,9.10
2022-08-19T12:37:27.480Z,9.07
2022-08-19T12:38:29.834Z,9.03
2022-08-19T12:39:34.536Z,10.37
2022-08-19T12:40:36.187Z,10.43
2022-08-19T12:41:38.299Z,9.30
2022-08-19T12:42:55.813Z,9.20
2022-08-19T12:43:57.475Z,9.10
2022-08-19T12:44:59.098Z,10.10
2022-08-19T12:46:00.622Z,9.87
2022-08-19T12:47:04.009Z,9.27
2022-08-19T12:48:32.941Z,10.17
2022-08-19T12:49:53.896Z,9.83
2022-08-19T12:50:52.384Z,8.87
2022-08-19T12:51:54.240Z,10.30
2022-08-19T12:52:56.065Z,9.67
2022-08-19T12:53:57.667Z,9.23
2022-08-19T12:54:59.429Z,8.70
2022-08-19T12:56:01.155Z,9.67
2022-08-19T12:57:10.494Z,9.60
2022-08-19T12:58:13.488Z,8.57
2022-08-19T12:59:17.654Z,9.10
2022-08-19T13:00:22.140Z,9.77
2022-08-19T13:01:23.942Z,9.50
2022-08-19T13:02:25.604Z,9.60
2022-08-19T13:03:30.291Z,9.80
2022-08-19T13:04:31.964Z,9.23
2022-08-19T13:05:35.121Z,9.43
2022-08-19T13:06:37.450Z,9.73
2022-08-19T13:07:40.600Z,9.87
2022-08-19T13:08:42.787Z,9.50
2022-08-19T13:09:48.060Z,8.67
2022-08-19T13:10:49.567Z,8.77
2022-08-19T13:11:51.131Z,9.63
2022-08-19T13:12:54.182Z,8.90
2022-08-19T13:13:56.204Z,8.70
2022-08-19T13:14:57.873Z,8.50
2022-08-19T13:16:04.230Z,10.23
2022-08-19T13:17:05.873Z,10.20
2022-08-19T13:18:09.970Z,8.90
2022-08-19T13:19:12.980Z,10.20
2022-08-19T13:20:14.579Z,8.53
2022-08-19T13:21:16.484Z,7.80
2022-08-19T13:22:18.446Z,8.47
2022-08-19T13:23:20.113Z,8.37
2022-08-19T13:24:21.719Z,8.60
2022-08-19T13:25:28.069Z,8.90
2022-08-19T13:26:29.740Z,8.80
2022-08-19T13:27:31.435Z,7.57
2022-08-19T13:28:52.545Z,8.50
2022-08-19T13:30:13.213Z,7.17
2022-08-19T13:31:41.012Z,7.83
2022-08-19T13:33:01.205Z,7.40
2022-08-19T13:34:02.821Z,7.17
2022-08-19T13:35:05.185Z,6.90
2022-08-19T13:36:08.784Z,7.57
2022-08-19T13:37:10.565Z,6.97
2022-08-19T13:38:13.576Z,7.00
2022-08-19T13:39:15.223Z,6.20
2022-08-19T13:40:24.759Z,6.13
2022-08-19T13:41:27.741Z,5.90
2022-08-19T13:42:33.919Z,5.70
2022-08-19T13:43:35.619Z,5.47
2022-08-19T13:44:37.417Z,5.63
2022-08-19T13:45:39.120Z,5.63
2022-08-19T13:46:40.792Z,5.43
2022-08-19T13:47:45.834Z,5.97
2022-08-19T13:48:49.369Z,5.37
2022-08-19T13:49:51.023Z,5.40
2022-08-19T13:50:52.929Z,5.83
2022-08-19T13:51:54.530Z,5.33
2022-08-19T13:52:57.025Z,5.83
2022-08-19T13:53:58.646Z,5.30
2022-08-19T13:55:00.268Z,6.30
2022-08-19T13:56:06.572Z,5.37
2022-08-19T13:57:08.179Z,5.40
2022-08-19T13:58:11.696Z,5.37
2022-08-19T13:59:13.614Z,5.00
2022-08-19T14:00:20.759Z,6.00
2022-08-19T14:01:24.560Z,5.50
2022-08-19T14:02:27.421Z,6.00
2022-08-19T14:03:29.350Z,5.80
2022-08-19T14:04:31.001Z,5.70
2022-08-19T14:05:33.433Z,5.97